createdAt,value
2023-12-09T00:00:40.577Z,14.53
2023-12-09T00:03:08.291Z,15.50
2023-12-09T00:05:35.996Z,15.97
2023-12-09T00:08:02.982Z,15.77
2023-12-09T00:10:29.934Z,14.07
2023-12-09T00:12:57.231Z,15.10
2023-12-09T00:15:24.270Z,15.00
2023-12-09T00:17:51.342Z,15.73
2023-12-09T00:20:18.361Z,16.70
2023-12-09T00:22:45.300Z,18.27
2023-12-09T00:25:12.361Z,16.43
2023-12-09T00:27:39.336Z,19.23
2023-12-09T00:30:07.880Z,14.40
2023-12-09T00:32:35.129Z,14.53
2023-12-09T00:35:08.696Z,13.20
2023-12-09T00:37:35.742Z,15.83
2023-12-09T00:40:02.911Z,14.47
2023-12-09T00:42:32.255Z,12.47
2023-12-09T00:44:59.470Z,12.57
2023-12-09T00:47:26.821Z,15.00
2023-12-09T00:49:54.449Z,14.60
2023-12-09T00:52:24.630Z,14.87
2023-12-09T00:54:52.362Z,13.13
2023-12-09T00:57:21.683Z,14.97
2023-12-09T00:59:50.168Z,17.47
2023-12-09T01:02:18.107Z,17.73
2023-12-09T01:04:48.395Z,18.17
2023-12-09T01:07:21.639Z,20.23
2023-12-09T01:10:00.758Z,16.87
2023-12-09T01:12:28.414Z,16.10
2023-12-09T01:14:55.811Z,14.30
2023-12-09T01:17:25.784Z,17.30
2023-12-09T01:19:53.128Z,15.20
2023-12-09T01:22:21.188Z,14.23
2023-12-09T01:27:33.952Z,19.83
2023-12-09T01:30:01.032Z,17.30
2023-12-09T01:32:28.425Z,19.20
2023-12-09T01:34:55.598Z,17.57
2023-12-09T01:37:22.665Z,14.03
2023-12-09T01:39:49.856Z,15.27
2023-12-09T01:42:19.592Z,16.93
2023-12-09T01:44:46.788Z,15.17
2023-12-09T01:47:14.162Z,16.30
2023-12-09T01:49:43.490Z,17.30
2023-12-09T01:52:14.993Z,15.27
2023-12-09T01:54:44.854Z,18.27
2023-12-09T01:57:12.248Z,19.30
2023-12-09T01:59:48.249Z,16.80
2023-12-09T02:02:35.813Z,16.03
2023-12-09T02:05:04.620Z,16.53
2023-12-09T02:07:31.820Z,16.30
2023-12-09T02:10:02.456Z,14.70
2023-12-09T02:12:37.435Z,13.80
2023-12-09T02:15:07.814Z,13.73
2023-12-09T02:18:07.281Z,12.23
2023-12-09T02:20:37.358Z,14.73
2023-12-09T02:23:11.808Z,13.67
2023-12-09T02:25:44.866Z,14.47
2023-12-09T02:28:29.098Z,12.83
2023-12-09T02:31:16.451Z,12.33
2023-12-09T02:33:47.967Z,12.07
2023-12-09T02:36:27.628Z,13.47
2023-12-09T02:38:56.810Z,13.57
2023-12-09T02:41:24.702Z,12.33
2023-12-09T02:43:51.738Z,11.60
2023-12-09T02:46:21.998Z,13.47
2023-12-09T02:48:49.173Z,10.07
2023-12-09T02:51:16.361Z,10.20
2023-12-09T02:53:46.027Z,10.20
2023-12-09T02:56:13.205Z,10.93
2023-12-09T02:58:40.455Z,10.00
2023-12-09T03:01:07.835Z,10.00
2023-12-09T03:03:35.202Z,12.20
2023-12-09T03:06:02.709Z,10.80
2023-12-09T03:08:33.123Z,9.40
2023-12-09T03:11:06.624Z,12.47
2023-12-09T03:13:40.479Z,12.03
2023-12-09T03:16:13.591Z,10.03
2023-12-09T03:18:44.380Z,10.63
2023-12-09T03:24:03.652Z,10.00
2023-12-09T03:26:39.209Z,10.23
2023-12-09T03:29:09.428Z,9.87
2023-12-09T03:31:40.996Z,7.73
2023-12-09T03:34:08.060Z,9.40
2023-12-09T03:36:35.217Z,8.07
2023-12-09T03:39:02.498Z,9.80
2023-12-09T03:41:29.603Z,8.13
2023-12-09T03:43:57.014Z,10.53
2023-12-09T03:46:24.380Z,12.13
2023-12-09T03:48:52.852Z,13.97
2023-12-09T03:51:24.013Z,11.13
2023-12-09T03:53:53.135Z,11.60
2023-12-09T03:56:21.875Z,13.27
2023-12-09T03:58:53.906Z,9.50
2023-12-09T04:01:22.343Z,10.57
2023-12-09T04:03:49.591Z,11.63
2023-12-09T04:06:16.727Z,11.93
2023-12-09T04:08:44.038Z,11.73
2023-12-09T04:11:11.261Z,10.73
2023-12-09T04:13:38.554Z,8.83
2023-12-09T04:16:07.751Z,8.53
2023-12-09T04:18:36.827Z,7.97
2023-12-09T04:21:04.702Z,8.43
2023-12-09T04:23:33.257Z,12.37
2023-12-09T04:26:00.518Z,9.67
2023-12-09T04:28:27.864Z,9.93
2023-12-09T04:30:54.829Z,11.00
2023-12-09T04:33:21.991Z,9.83
2023-12-09T04:35:49.115Z,10.90
2023-12-09T04:38:16.096Z,9.13
2023-12-09T04:40:43.090Z,9.77
2023-12-09T04:43:10.075Z,9.47
2023-12-09T04:45:37.225Z,9.50
2023-12-09T04:48:04.486Z,9.27
2023-12-09T04:50:34.627Z,10.37
2023-12-09T04:53:01.666Z,9.87
2023-12-09T04:55:28.970Z,11.00
2023-12-09T04:57:59.048Z,10.20
2023-12-09T05:00:26.078Z,9.73
2023-12-09T05:02:56.181Z,10.60
2023-12-09T05:05:26.230Z,10.83
2023-12-09T05:07:59.742Z,10.47
2023-12-09T05:10:26.790Z,10.30
2023-12-09T05:12:54.083Z,9.53
2023-12-09T05:15:23.842Z,10.93
2023-12-09T05:17:57.617Z,9.40
2023-12-09T05:20:24.686Z,9.70
2023-12-09T05:22:51.768Z,9.07
2023-12-09T05:25:20.300Z,10.00
2023-12-09T05:27:52.453Z,7.17
2023-12-09T05:30:24.344Z,7.13
2023-12-09T05:32:54.085Z,6.97
2023-12-09T05:35:21.346Z,8.00
2023-12-09T05:37:48.434Z,8.27
2023-12-09T05:40:18.666Z,7.40
2023-12-09T05:42:45.732Z,7.87
2023-12-09T05:45:13.289Z,8.03
2023-12-09T05:47:40.396Z,8.57
2023-12-09T05:50:08.074Z,13.37
2023-12-09T05:52:35.390Z,15.93
2023-12-09T05:55:02.481Z,13.57
2023-12-09T05:57:29.620Z,13.03
2023-12-09T05:59:56.743Z,10.77
2023-12-09T06:02:23.930Z,10.20
2023-12-09T06:04:51.114Z,10.07
2023-12-09T06:07:18.088Z,12.13
2023-12-09T06:09:45.105Z,11.10
2023-12-09T06:12:12.397Z,11.83
2023-12-09T06:14:39.408Z,8.93
2023-12-09T06:17:06.430Z,9.47
2023-12-09T06:19:33.416Z,10.70
2023-12-09T06:22:00.346Z,9.53
2023-12-09T06:24:27.631Z,8.10
2023-12-09T06:26:54.670Z,8.60
2023-12-09T06:29:21.703Z,7.97
2023-12-09T06:31:48.919Z,8.70
2023-12-09T06:34:16.000Z,8.40
2023-12-09T06:36:43.075Z,7.03
2023-12-09T06:39:10.043Z,7.87
2023-12-09T06:41:40.070Z,7.40
2023-12-09T06:44:07.074Z,8.03
2023-12-09T06:46:37.790Z,8.53
2023-12-09T06:49:06.548Z,9.43
2023-12-09T06:51:34.128Z,7.90
2023-12-09T06:54:01.173Z,9.50
2023-12-09T06:56:28.230Z,10.13
2023-12-09T06:58:55.198Z,8.23
2023-12-09T07:01:23.470Z,15.13
2023-12-09T07:03:51.098Z,11.63
2023-12-09T07:06:22.491Z,9.97
2023-12-09T07:08:49.715Z,9.13
2023-12-09T07:11:21.043Z,9.50
2023-12-09T07:13:48.742Z,13.00
2023-12-09T07:16:16.300Z,9.93
2023-12-09T07:18:48.355Z,9.17
2023-12-09T07:21:16.486Z,9.90
2023-12-09T07:23:44.402Z,8.00
2023-12-09T07:26:11.466Z,9.00
2023-12-09T07:28:38.535Z,9.90
2023-12-09T07:31:05.993Z,10.00
2023-12-09T07:33:33.157Z,11.30
2023-12-09T07:36:00.359Z,10.97
2023-12-09T07:38:27.566Z,10.30
2023-12-09T07:40:54.537Z,10.33
2023-12-09T07:43:21.826Z,11.70
2023-12-09T07:45:48.785Z,12.00
2023-12-09T07:48:15.826Z,11.73
2023-12-09T07:50:42.902Z,12.07
2023-12-09T07:53:09.881Z,12.83
2023-12-09T07:55:36.934Z,10.30
2023-12-09T07:58:03.865Z,11.37
2023-12-09T08:00:30.948Z,10.63
2023-12-09T08:03:03.741Z,11.53
2023-12-09T08:05:31.141Z,11.47
2023-12-09T08:07:58.069Z,10.63
2023-12-09T08:10:25.006Z,9.63
2023-12-09T08:12:51.981Z,9.60
2023-12-09T08:15:18.990Z,11.00
2023-12-09T08:17:45.949Z,11.37
2023-12-09T08:20:13.003Z,10.67
2023-12-09T08:22:40.073Z,10.80
2023-12-09T08:25:07.942Z,11.67
2023-12-09T08:27:34.995Z,12.43
2023-12-09T08:30:02.048Z,12.50
2023-12-09T08:32:29.306Z,10.33
2023-12-09T08:35:03.259Z,11.47
2023-12-09T08:37:37.472Z,10.63
2023-12-09T08:40:12.750Z,11.77
2023-12-09T08:42:45.166Z,11.00
2023-12-09T08:45:18.959Z,11.40
2023-12-09T08:47:46.426Z,9.90
2023-12-09T08:50:22.659Z,11.53
2023-12-09T08:52:53.467Z,9.50
2023-12-09T08:55:21.045Z,10.33
2023-12-09T08:57:48.338Z,9.70
2023-12-09T09:00:15.865Z,9.80
2023-12-09T09:02:42.812Z,9.63
2023-12-09T09:05:09.949Z,10.77
2023-12-09T09:07:37.046Z,10.13
2023-12-09T09:10:04.206Z,10.97
2023-12-09T09:12:31.590Z,9.43
2023-12-09T09:15:00.025Z,9.40
2023-12-09T09:17:28.154Z,9.97
2023-12-09T09:19:55.239Z,9.00
2023-12-09T09:22:22.287Z,9.87
2023-12-09T09:24:49.245Z,9.53
2023-12-09T09:27:16.236Z,9.20
2023-12-09T09:29:43.335Z,8.10
2023-12-09T09:32:10.390Z,7.60
2023-12-09T09:34:37.785Z,7.23
2023-12-09T09:37:05.195Z,6.87
2023-12-09T09:39:32.291Z,6.50
2023-12-09T09:42:20.517Z,6.90
2023-12-09T09:45:28.611Z,7.90
2023-12-09T09:48:05.088Z,7.30
2023-12-09T09:50:37.728Z,7.10
2023-12-09T09:53:08.421Z,6.37
2023-12-09T09:55:35.539Z,5.90
2023-12-09T09:58:03.314Z,6.00
2023-12-09T10:00:30.606Z,6.03
2023-12-09T10:02:58.885Z,6.00
2023-12-09T10:05:28.079Z,7.40
2023-12-09T10:07:55.985Z,5.63
2023-12-09T10:10:23.014Z,5.77
2023-12-09T10:12:50.114Z,6.00
2023-12-09T10:15:17.408Z,5.20
2023-12-09T10:17:44.637Z,5.40
2023-12-09T10:20:11.878Z,5.30
2023-12-09T10:22:40.914Z,6.27
2023-12-09T10:25:08.456Z,6.40
2023-12-09T10:27:35.634Z,6.13
2023-12-09T10:30:03.038Z,6.43
2023-12-09T10:32:30.652Z,7.50
2023-12-09T10:35:00.318Z,6.53
2023-12-09T10:37:30.329Z,6.97
2023-12-09T10:39:57.570Z,7.20
2023-12-09T10:42:25.196Z,7.27
2023-12-09T10:44:52.588Z,7.07
2023-12-09T10:47:19.502Z,6.50
2023-12-09T10:49:46.619Z,6.73
2023-12-09T10:52:13.705Z,6.63
2023-12-09T10:54:41.068Z,6.83
2023-12-09T10:57:09.015Z,6.40
2023-12-09T10:59:36.610Z,6.00
2023-12-09T11:02:05.031Z,7.00
2023-12-09T11:04:33.815Z,6.87
2023-12-09T11:07:05.176Z,5.73
2023-12-09T11:09:33.397Z,6.83
2023-12-09T11:12:09.317Z,7.13
2023-12-09T11:14:39.827Z,7.43
2023-12-09T11:17:37.648Z,7.10
2023-12-09T11:20:29.230Z,8.10
2023-12-09T11:23:27.227Z,6.60
2023-12-09T11:26:02.011Z,7.00
2023-12-09T11:28:29.095Z,5.53
2023-12-09T11:30:58.917Z,6.93
2023-12-09T11:33:26.392Z,6.17
2023-12-09T11:35:56.587Z,7.20
2023-12-09T11:38:28.127Z,6.27
2023-12-09T11:41:04.634Z,6.60
2023-12-09T11:43:40.256Z,6.50
2023-12-09T11:46:13.575Z,6.57
2023-12-09T11:48:44.961Z,6.60
2023-12-09T11:51:18.147Z,5.60
2023-12-09T11:54:08.003Z,5.67
2023-12-09T11:56:36.598Z,5.97
2023-12-09T11:59:17.734Z,6.60
2023-12-09T12:01:47.617Z,7.10
2023-12-09T12:04:15.058Z,6.77
2023-12-09T12:06:51.518Z,6.47
2023-12-09T12:09:28.477Z,8.43
2023-12-09T12:12:00.552Z,6.30
2023-12-09T12:14:30.531Z,6.00
2023-12-09T12:17:03.525Z,8.53
2023-12-09T12:19:36.977Z,6.30
2023-12-09T12:22:08.471Z,6.97
2023-12-09T12:25:04.019Z,6.43
2023-12-09T12:27:35.854Z,7.30
2023-12-09T12:30:13.400Z,6.63
2023-12-09T12:32:43.656Z,9.57
2023-12-09T12:35:17.041Z,14.73
2023-12-09T12:37:48.679Z,5.70
2023-12-09T12:40:19.120Z,6.07
2023-12-09T12:42:50.948Z,6.47
2023-12-09T12:45:19.868Z,6.30
2023-12-09T12:47:49.947Z,5.63
2023-12-09T12:50:28.415Z,7.33
2023-12-09T12:52:56.267Z,7.17
2023-12-09T12:55:24.548Z,6.17
2023-12-09T12:57:53.209Z,6.23
2023-12-09T13:00:21.935Z,5.60
2023-12-09T13:02:49.274Z,6.23
2023-12-09T13:05:26.368Z,6.53
2023-12-09T13:07:59.602Z,8.30
2023-12-09T13:10:27.054Z,7.63
2023-12-09T13:12:54.308Z,6.07
2023-12-09T13:15:21.284Z,6.20
2023-12-09T13:17:48.372Z,5.77
2023-12-09T13:20:15.636Z,6.37
2023-12-09T13:22:42.705Z,6.20
2023-12-09T13:25:15.797Z,6.53
2023-12-09T13:27:43.138Z,6.33
2023-12-09T13:30:10.705Z,5.67
2023-12-09T13:32:38.820Z,6.50
2023-12-09T13:35:06.643Z,5.23
2023-12-09T13:37:34.260Z,8.00
2023-12-09T13:40:02.052Z,6.50
2023-12-09T13:42:29.762Z,5.77
2023-12-09T13:44:57.151Z,7.20
2023-12-09T13:47:24.396Z,7.70
2023-12-09T13:49:51.495Z,5.97
2023-12-09T13:52:19.249Z,5.37
2023-12-09T13:54:46.245Z,5.23
2023-12-09T13:57:13.322Z,8.00
2023-12-09T13:59:40.253Z,8.63
2023-12-09T14:02:07.713Z,5.40
2023-12-09T14:04:35.402Z,4.90
2023-12-09T14:07:02.526Z,6.87
2023-12-09T14:09:29.525Z,8.17
2023-12-09T14:11:56.578Z,5.57
2023-12-09T14:14:23.754Z,6.03
2023-12-09T14:16:50.835Z,6.07
2023-12-09T14:19:18.010Z,5.40
2023-12-09T14:21:45.060Z,13.30
2023-12-09T14:24:12.083Z,6.43
2023-12-09T14:26:39.114Z,5.57
2023-12-09T14:29:06.341Z,7.07
2023-12-09T14:31:33.367Z,6.90
2023-12-09T14:34:00.550Z,7.43
2023-12-09T14:36:27.927Z,6.37
2023-12-09T14:38:55.159Z,5.77
2023-12-09T14:41:22.132Z,4.67
2023-12-09T14:43:53.032Z,4.53
2023-12-09T14:46:23.124Z,5.10
2023-12-09T14:48:50.298Z,6.17
2023-12-09T14:51:18.400Z,5.57
2023-12-09T14:53:46.307Z,5.00
2023-12-09T14:56:13.322Z,4.63
2023-12-09T14:58:40.277Z,5.03
2023-12-09T15:01:07.369Z,4.97
2023-12-09T15:03:34.528Z,4.70
2023-12-09T15:06:01.761Z,4.43
2023-12-09T15:08:28.960Z,5.03
2023-12-09T15:10:56.201Z,6.70
2023-12-09T15:13:23.214Z,5.97
2023-12-09T15:15:50.562Z,7.40
2023-12-09T15:18:17.660Z,5.50
2023-12-09T15:20:44.713Z,6.83
2023-12-09T15:23:11.697Z,7.67
2023-12-09T15:25:38.917Z,7.00
2023-12-09T15:28:05.952Z,7.03
2023-12-09T15:30:33.266Z,6.77
2023-12-09T15:33:00.358Z,7.20
2023-12-09T15:35:27.564Z,6.90
2023-12-09T15:37:54.546Z,8.50
2023-12-09T15:40:22.566Z,8.40
2023-12-09T15:42:49.524Z,7.97
2023-12-09T15:45:16.652Z,7.40
2023-12-09T15:47:43.716Z,6.80
2023-12-09T15:50:10.755Z,8.37
2023-12-09T15:52:37.750Z,8.27
2023-12-09T15:55:05.697Z,7.77
2023-12-09T15:57:32.703Z,7.80
2023-12-09T15:59:59.745Z,9.10
2023-12-09T16:02:26.971Z,8.10
2023-12-09T16:04:54.260Z,10.97
2023-12-09T16:07:21.486Z,9.17
2023-12-09T16:09:52.789Z,8.80
2023-12-09T16:12:24.827Z,8.00
2023-12-09T16:14:51.894Z,6.63
2023-12-09T16:17:19.203Z,7.10
2023-12-09T16:19:46.479Z,7.30
2023-12-09T16:22:13.750Z,6.87
2023-12-09T16:24:40.910Z,8.33
2023-12-09T16:27:08.232Z,6.83
2023-12-09T16:29:35.433Z,7.33
2023-12-09T16:32:02.349Z,8.43
2023-12-09T16:34:29.702Z,8.47
2023-12-09T16:36:56.838Z,7.23
2023-12-09T16:39:23.855Z,6.80
2023-12-09T16:41:50.871Z,6.60
2023-12-09T16:44:18.059Z,6.93
2023-12-09T16:46:45.047Z,7.87
2023-12-09T16:49:12.334Z,7.67
2023-12-09T16:51:39.420Z,7.90
2023-12-09T16:54:06.469Z,6.87
2023-12-09T16:56:33.424Z,6.93
2023-12-09T16:59:00.902Z,8.53
2023-12-09T17:01:27.890Z,7.70
2023-12-09T17:03:55.002Z,7.07
2023-12-09T17:06:22.084Z,6.90
2023-12-09T17:08:49.038Z,6.57
2023-12-09T17:11:16.107Z,7.53
2023-12-09T17:13:43.044Z,6.50
2023-12-09T17:16:10.032Z,8.00
2023-12-09T17:18:37.247Z,8.83
2023-12-09T17:21:04.692Z,7.60
2023-12-09T17:23:31.755Z,7.63
2023-12-09T17:25:59.031Z,7.63
2023-12-09T17:28:26.022Z,8.00
2023-12-09T17:30:53.080Z,6.00
2023-12-09T17:33:20.354Z,6.50
2023-12-09T17:35:47.606Z,6.00
2023-12-09T17:38:14.617Z,6.30
2023-12-09T17:40:41.622Z,6.83
2023-12-09T17:43:08.593Z,7.17
2023-12-09T17:45:35.667Z,7.00
2023-12-09T17:48:02.746Z,5.83
2023-12-09T17:50:29.782Z,6.50
2023-12-09T17:52:56.896Z,7.37
2023-12-09T17:55:24.424Z,5.37
2023-12-09T17:57:51.733Z,12.97
2023-12-09T18:00:19.085Z,8.50
2023-12-09T18:02:46.145Z,10.23
2023-12-09T18:05:13.160Z,7.13
2023-12-09T18:07:40.777Z,6.93
2023-12-09T18:10:08.475Z,6.27
2023-12-09T18:12:36.272Z,10.20
2023-12-09T18:15:03.395Z,8.83
2023-12-09T18:17:30.455Z,12.10
2023-12-09T18:19:57.481Z,10.60
2023-12-09T18:22:24.514Z,7.10
2023-12-09T18:24:51.644Z,11.07
2023-12-09T18:27:18.786Z,7.57
2023-12-09T18:32:38.276Z,8.23
2023-12-09T18:35:23.283Z,9.50
2023-12-09T18:40:46.976Z,11.90
2023-12-09T18:43:19.748Z,9.20
2023-12-09T18:45:49.967Z,7.70
2023-12-09T18:48:37.039Z,8.60
2023-12-09T18:51:04.991Z,7.87
2023-12-09T18:53:33.110Z,7.30
2023-12-09T18:56:10.754Z,6.30
2023-12-09T19:02:12.235Z,7.07
2023-12-09T19:04:44.898Z,7.80
2023-12-09T19:10:34.388Z,6.57
2023-12-09T19:15:59.102Z,5.83
2023-12-09T19:18:59.538Z,5.80
2023-12-09T19:22:06.582Z,6.30
2023-12-09T19:27:46.886Z,6.03
2023-12-09T19:30:29.278Z,6.10
2023-12-09T19:32:56.607Z,6.30
2023-12-09T19:35:23.709Z,6.07
2023-12-09T19:37:51.015Z,5.53
2023-12-09T19:40:18.066Z,6.17
2023-12-09T19:42:45.122Z,6.80
2023-12-09T19:45:12.213Z,9.23
2023-12-09T19:47:39.177Z,7.80
2023-12-09T19:50:06.570Z,8.00
2023-12-09T19:52:33.624Z,9.23
2023-12-09T19:55:00.698Z,9.07
2023-12-09T19:57:29.022Z,5.40
2023-12-09T19:59:55.988Z,5.77
2023-12-09T20:02:22.928Z,6.67
2023-12-09T20:04:49.936Z,6.60
2023-12-09T20:07:17.201Z,6.20
2023-12-09T20:09:44.508Z,7.10
2023-12-09T20:12:11.555Z,6.90
2023-12-09T20:14:38.787Z,7.27
2023-12-09T20:17:05.824Z,8.27
2023-12-09T20:19:32.888Z,6.50
2023-12-09T20:21:59.896Z,7.90
2023-12-09T20:24:30.598Z,5.47
2023-12-09T20:26:57.596Z,6.50
2023-12-09T20:29:24.572Z,4.20
2023-12-09T20:31:51.609Z,6.37
2023-12-09T20:34:19.065Z,6.77
2023-12-09T20:36:46.459Z,9.53
2023-12-09T20:39:13.461Z,4.47
2023-12-09T20:42:03.384Z,5.80
2023-12-09T20:47:33.562Z,3.57
2023-12-09T20:53:51.204Z,6.70
2023-12-09T20:56:40.976Z,3.43
2023-12-09T21:05:15.027Z,2.80
2023-12-09T21:10:52.466Z,3.53
2023-12-09T21:13:39.468Z,3.87
2023-12-09T21:16:21.674Z,5.23
2023-12-09T21:19:16.041Z,5.67
2023-12-09T21:21:58.832Z,3.70
2023-12-09T21:24:34.766Z,4.93
2023-12-09T21:27:14.740Z,4.10
2023-12-09T21:30:04.555Z,4.73
2023-12-09T21:35:39.189Z,2.80
2023-12-09T21:38:09.850Z,2.63
2023-12-09T21:40:41.615Z,2.73
2023-12-09T21:43:12.390Z,2.53
2023-12-09T21:45:49.955Z,2.90
2023-12-09T21:48:21.664Z,3.17
2023-12-09T21:51:15.160Z,3.10
2023-12-09T21:56:33.774Z,2.43
2023-12-09T21:59:26.971Z,2.40
2023-12-09T22:02:21.497Z,2.67
2023-12-09T22:05:01.816Z,1.97
2023-12-09T22:10:31.956Z,2.10
2023-12-09T22:12:59.068Z,3.57
2023-12-09T22:15:26.810Z,3.60
2023-12-09T22:17:54.005Z,3.50
2023-12-09T22:20:28.880Z,3.80
2023-12-09T22:23:07.121Z,2.60
2023-12-09T22:25:49.411Z,3.30
2023-12-09T22:31:05.217Z,2.70
2023-12-09T22:33:34.912Z,2.20
2023-12-09T22:36:14.672Z,2.63
2023-12-09T22:38:49.410Z,2.70
2023-12-09T22:41:30.218Z,3.07
2023-12-09T22:43:59.911Z,2.70
2023-12-09T22:46:39.736Z,2.20
2023-12-09T22:49:13.127Z,2.80
2023-12-09T22:51:43.427Z,2.47
2023-12-09T22:54:17.805Z,22.30
2023-12-09T22:59:52.962Z,3.20
2023-12-09T23:02:36.165Z,7.97
2023-12-09T23:05:10.596Z,3.13
2023-12-09T23:07:41.457Z,1.90
2023-12-09T23:10:18.743Z,2.37
2023-12-09T23:12:46.270Z,2.63
2023-12-09T23:15:25.387Z,2.33
2023-12-09T23:18:08.610Z,6.90
2023-12-09T23:20:46.244Z,9.07
2023-12-09T23:23:16.464Z,7.80
2023-12-09T23:25:46.697Z,3.77
2023-12-09T23:28:20.022Z,3.00
2023-12-09T23:30:49.608Z,2.33
2023-12-09T23:33:17.253Z,2.60
2023-12-09T23:36:28.416Z,2.43
2023-12-09T23:39:10.735Z,2.27
2023-12-09T23:41:42.518Z,2.17
2023-12-09T23:44:52.311Z,1.93
2023-12-09T23:47:31.619Z,2.10
2023-12-09T23:50:19.715Z,2.50
2023-12-09T23:53:13.259Z,2.00
2023-12-09T23:56:07.317Z,3.33
2023-12-09T23:58:34.609Z,2.67
